createdAt,value
2023-11-23T00:01:36.758Z,22.60
2023-11-23T00:04:06.562Z,20.73
2023-11-23T00:06:34.628Z,24.75
2023-11-23T00:09:02.584Z,21.45
2023-11-23T00:11:30.565Z,24.45
2023-11-23T00:13:58.514Z,23.40
2023-11-23T00:16:26.614Z,19.98
2023-11-23T00:18:54.631Z,19.17
2023-11-23T00:21:23.983Z,19.83
2023-11-23T00:23:52.595Z,29.42
2023-11-23T00:26:20.554Z,27.65
2023-11-23T00:28:57.690Z,25.98
2023-11-23T00:31:25.697Z,21.30
2023-11-23T00:33:53.829Z,21.73
2023-11-23T00:36:21.909Z,34.80
2023-11-23T00:38:51.338Z,24.38
2023-11-23T00:41:19.334Z,26.80
2023-11-23T00:43:47.318Z,20.20
2023-11-23T00:46:15.893Z,31.05
2023-11-23T00:48:44.130Z,24.67
2023-11-23T00:51:12.213Z,24.58
2023-11-23T00:53:40.722Z,23.60
2023-11-23T00:56:10.405Z,28.15
2023-11-23T00:58:38.410Z,27.45
2023-11-23T01:01:06.475Z,25.92
2023-11-23T01:03:34.552Z,23.88
2023-11-23T01:06:02.601Z,23.50
2023-11-23T01:08:30.563Z,24.58
2023-11-23T01:11:00.362Z,30.85
2023-11-23T01:13:30.402Z,21.48
2023-11-23T01:15:57.780Z,25.85
2023-11-23T01:18:26.011Z,25.88
2023-11-23T01:20:54.093Z,23.48
2023-11-23T01:23:23.173Z,23.13
2023-11-23T01:25:51.191Z,24.60
2023-11-23T01:28:19.271Z,31.52
2023-11-23T01:30:48.593Z,25.67
2023-11-23T01:33:16.839Z,22.95
2023-11-23T01:35:45.434Z,27.77
2023-11-23T01:38:13.436Z,25.73
2023-11-23T01:40:41.422Z,24.25
2023-11-23T01:43:11.001Z,22.50
2023-11-23T01:45:39.469Z,23.38
2023-11-23T01:48:09.094Z,21.90
2023-11-23T01:53:06.539Z,25.27
2023-11-23T01:55:34.509Z,24.70
2023-11-23T01:58:04.126Z,25.25
2023-11-23T02:00:32.814Z,25.02
2023-11-23T02:03:01.955Z,23.60
2023-11-23T02:05:31.352Z,26.77
2023-11-23T02:07:59.316Z,26.20
2023-11-23T02:10:28.841Z,21.50
2023-11-23T02:12:57.815Z,21.73
2023-11-23T02:15:25.802Z,24.67
2023-11-23T02:18:03.110Z,21.00
2023-11-23T02:20:33.047Z,26.48
2023-11-23T02:23:02.061Z,20.67
2023-11-23T02:28:00.445Z,18.15
2023-11-23T02:30:28.547Z,27.90
2023-11-23T02:32:57.376Z,22.40
2023-11-23T02:35:25.545Z,23.40
2023-11-23T02:37:53.534Z,23.92
2023-11-23T02:40:21.661Z,22.88
2023-11-23T02:42:51.141Z,27.42
2023-11-23T02:47:47.060Z,21.05
2023-11-23T02:50:15.056Z,24.42
2023-11-23T02:52:43.254Z,25.50
2023-11-23T02:55:12.253Z,35.95
2023-11-23T02:57:40.476Z,23.40
2023-11-23T03:00:11.126Z,24.50
2023-11-23T03:02:39.141Z,22.50
2023-11-23T03:05:08.074Z,21.40
2023-11-23T03:07:36.309Z,28.25
2023-11-23T03:10:04.355Z,25.08
2023-11-23T03:12:33.294Z,26.85
2023-11-23T03:15:01.274Z,21.73
2023-11-23T03:17:30.673Z,29.23
2023-11-23T03:19:58.805Z,24.48
2023-11-23T03:22:26.797Z,23.35
2023-11-23T03:24:56.339Z,28.27
2023-11-23T03:27:24.320Z,25.85
2023-11-23T03:29:52.699Z,25.95
2023-11-23T03:32:20.728Z,21.50
2023-11-23T03:34:50.063Z,27.35
2023-11-23T03:42:14.579Z,26.13
2023-11-23T03:44:42.617Z,24.10
2023-11-23T03:47:10.650Z,27.73
2023-11-23T03:49:38.588Z,27.40
2023-11-23T03:52:08.914Z,23.05
2023-11-23T03:54:37.101Z,19.75
2023-11-23T03:57:05.833Z,21.38
2023-11-23T03:59:33.904Z,26.38
2023-11-23T04:02:01.918Z,24.98
2023-11-23T04:04:30.143Z,26.75
2023-11-23T04:06:59.419Z,29.38
2023-11-23T04:09:29.063Z,29.15
2023-11-23T04:11:57.058Z,23.83
2023-11-23T04:14:25.006Z,23.05
2023-11-23T04:16:53.559Z,32.22
2023-11-23T04:19:21.534Z,22.48
2023-11-23T04:21:49.878Z,24.08
2023-11-23T04:24:17.862Z,33.25
2023-11-23T04:26:47.189Z,27.08
2023-11-23T04:29:15.278Z,21.60
2023-11-23T04:31:43.233Z,20.67
2023-11-23T04:34:11.267Z,27.25
2023-11-23T04:36:39.267Z,22.58
2023-11-23T04:39:07.422Z,22.42
2023-11-23T04:41:35.454Z,22.58
2023-11-23T04:44:04.929Z,21.83
2023-11-23T04:49:00.797Z,18.67
2023-11-23T04:51:28.712Z,25.48
2023-11-23T04:53:58.038Z,21.58
2023-11-23T04:58:53.882Z,19.63
2023-11-23T05:01:23.151Z,20.17
2023-11-23T05:03:51.275Z,24.55
2023-11-23T05:06:19.351Z,21.48
2023-11-23T05:08:47.779Z,19.75
2023-11-23T05:11:15.852Z,17.92
2023-11-23T05:13:43.817Z,17.52
2023-11-23T05:16:11.784Z,17.58
2023-11-23T05:18:44.370Z,27.35
2023-11-23T05:21:12.772Z,17.83
2023-11-23T05:23:40.784Z,16.95
2023-11-23T05:26:08.752Z,16.95
2023-11-23T05:28:37.054Z,16.40
2023-11-23T05:31:05.357Z,16.27
2023-11-23T05:33:33.471Z,19.33
2023-11-23T05:36:03.264Z,17.30
2023-11-23T05:38:31.615Z,16.83
2023-11-23T05:40:59.572Z,16.20
2023-11-23T05:43:27.537Z,19.50
2023-11-23T05:45:55.535Z,13.13
2023-11-23T05:48:23.555Z,14.63
2023-11-23T05:50:51.567Z,16.00
2023-11-23T05:53:20.913Z,14.75
2023-11-23T05:58:16.702Z,12.55
2023-11-23T06:00:44.673Z,12.93
2023-11-23T06:03:12.990Z,11.60
2023-11-23T06:05:41.141Z,12.55
2023-11-23T06:08:09.124Z,11.00
2023-11-23T06:10:38.692Z,11.38
2023-11-23T06:13:07.032Z,10.20
2023-11-23T06:15:34.989Z,10.95
2023-11-23T06:18:11.121Z,9.15
2023-11-23T06:20:42.043Z,11.02
2023-11-23T06:23:10.505Z,9.55
2023-11-23T06:25:40.332Z,11.60
2023-11-23T06:28:15.078Z,10.93
2023-11-23T06:30:46.191Z,9.38
2023-11-23T06:33:14.767Z,7.90
2023-11-23T06:35:43.048Z,7.97
2023-11-23T06:38:11.155Z,8.65
2023-11-23T06:40:40.427Z,7.60
2023-11-23T06:43:08.355Z,9.38
2023-11-23T06:45:36.369Z,8.20
2023-11-23T06:48:04.619Z,8.75
2023-11-23T06:50:33.792Z,9.50
2023-11-23T06:53:01.720Z,9.05
2023-11-23T06:55:29.634Z,5.35
2023-11-23T06:57:58.928Z,8.27
2023-11-23T07:00:27.020Z,7.65
2023-11-23T07:02:57.360Z,7.57
2023-11-23T07:05:25.871Z,6.10
2023-11-23T07:07:54.430Z,9.23
2023-11-23T07:10:23.289Z,7.40
2023-11-23T07:17:53.377Z,7.30
2023-11-23T07:20:21.483Z,6.40
2023-11-23T07:22:49.411Z,5.63
2023-11-23T07:25:18.380Z,7.60
2023-11-23T07:27:46.394Z,6.72
2023-11-23T07:30:15.359Z,6.90
2023-11-23T07:32:44.757Z,6.05
2023-11-23T07:35:13.629Z,6.70
2023-11-23T07:37:41.572Z,5.60
2023-11-23T07:40:15.449Z,7.75
2023-11-23T07:42:45.109Z,8.00
2023-11-23T07:45:13.803Z,8.55
2023-11-23T07:47:44.605Z,6.40
2023-11-23T07:50:12.774Z,5.28
2023-11-23T07:52:40.762Z,6.15
2023-11-23T07:55:11.234Z,7.30
2023-11-23T07:57:39.462Z,5.65
2023-11-23T08:00:09.337Z,5.93
2023-11-23T08:02:37.652Z,5.30
2023-11-23T08:05:09.933Z,6.03
2023-11-23T08:07:37.978Z,4.55
2023-11-23T08:10:10.588Z,4.60
2023-11-23T08:12:39.082Z,6.32
2023-11-23T08:15:08.364Z,5.05
2023-11-23T08:17:36.749Z,5.25
2023-11-23T08:20:07.465Z,5.53
2023-11-23T08:22:37.362Z,6.05
2023-11-23T08:25:05.984Z,5.63
2023-11-23T08:27:35.810Z,4.43
2023-11-23T08:30:05.274Z,3.97
2023-11-23T08:32:33.274Z,4.43
2023-11-23T08:35:02.314Z,5.20
2023-11-23T08:37:30.265Z,3.60
2023-11-23T08:39:59.646Z,3.58
2023-11-23T08:44:55.429Z,4.93
2023-11-23T08:47:23.413Z,3.33
2023-11-23T08:49:51.410Z,4.05
2023-11-23T08:52:19.717Z,4.88
2023-11-23T08:54:47.796Z,3.78
2023-11-23T08:57:17.331Z,5.70
2023-11-23T08:59:46.138Z,3.47
2023-11-23T09:02:20.400Z,3.40
2023-11-23T09:04:50.240Z,2.97
2023-11-23T09:09:46.935Z,4.90
2023-11-23T09:12:15.036Z,3.92
2023-11-23T09:14:49.389Z,3.75
2023-11-23T09:17:18.504Z,4.43
2023-11-23T09:19:47.493Z,5.72
2023-11-23T09:22:15.512Z,4.03
2023-11-23T09:24:43.978Z,5.07
2023-11-23T09:27:12.480Z,4.30
2023-11-23T09:29:40.583Z,4.78
2023-11-23T09:32:10.283Z,3.65
2023-11-23T09:34:38.219Z,6.28
2023-11-23T09:37:07.475Z,5.85
2023-11-23T09:42:06.904Z,4.22
2023-11-23T09:44:37.592Z,4.47
2023-11-23T09:47:10.121Z,4.93
2023-11-23T09:49:39.213Z,3.85
2023-11-23T09:52:08.450Z,3.78
2023-11-23T09:54:37.280Z,3.70
2023-11-23T09:57:06.032Z,4.28
2023-11-23T09:59:34.107Z,4.93
2023-11-23T10:02:07.101Z,5.28
2023-11-23T10:04:36.567Z,4.82
2023-11-23T10:09:35.357Z,4.13
2023-11-23T10:12:04.616Z,3.92
2023-11-23T10:17:00.556Z,4.55
2023-11-23T10:19:27.533Z,4.15
2023-11-23T10:22:00.985Z,4.82
2023-11-23T10:24:29.593Z,3.40
2023-11-23T10:26:58.024Z,3.60
2023-11-23T10:29:29.691Z,3.85
2023-11-23T10:32:00.632Z,3.90
2023-11-23T10:34:29.961Z,3.13
2023-11-23T10:37:00.097Z,3.65
2023-11-23T10:39:29.118Z,3.20
2023-11-23T10:41:57.970Z,3.55
2023-11-23T10:44:27.713Z,3.53
2023-11-23T10:46:59.876Z,3.30
2023-11-23T10:49:28.518Z,3.92
2023-11-23T10:51:56.733Z,2.65
2023-11-23T10:54:26.080Z,3.38
2023-11-23T11:01:51.612Z,2.70
2023-11-23T11:04:19.718Z,3.47
2023-11-23T11:06:48.658Z,2.70
2023-11-23T11:09:18.473Z,2.75
2023-11-23T11:11:55.294Z,2.92
2023-11-23T11:14:32.743Z,2.25
2023-11-23T11:17:05.475Z,2.05
2023-11-23T11:19:44.648Z,2.78
2023-11-23T11:22:15.002Z,2.65
2023-11-23T11:24:46.080Z,2.13
2023-11-23T11:27:15.785Z,4.32
2023-11-23T11:29:52.149Z,2.70
2023-11-23T11:32:22.620Z,1.98
2023-11-23T11:35:01.999Z,3.00
2023-11-23T11:37:32.318Z,2.05
2023-11-23T11:40:01.320Z,1.67
2023-11-23T11:42:32.020Z,2.10
2023-11-23T11:45:00.333Z,2.58
2023-11-23T11:47:30.768Z,2.67
2023-11-23T11:49:59.313Z,3.00
2023-11-23T11:52:28.044Z,1.95
2023-11-23T11:54:56.113Z,2.05
2023-11-23T11:57:24.094Z,3.05
2023-11-23T11:59:54.700Z,2.22
2023-11-23T12:02:22.708Z,2.15
2023-11-23T12:04:59.046Z,1.83
2023-11-23T12:07:27.400Z,1.90
2023-11-23T12:09:56.278Z,2.38
2023-11-23T12:12:24.303Z,2.00
2023-11-23T12:14:54.291Z,2.65
2023-11-23T12:17:23.237Z,2.05
2023-11-23T12:19:52.467Z,2.10
2023-11-23T12:24:49.761Z,1.38
2023-11-23T12:27:17.873Z,1.95
2023-11-23T12:29:46.004Z,2.53
2023-11-23T12:32:15.955Z,1.80
2023-11-23T12:34:44.570Z,2.03
2023-11-23T12:37:12.589Z,1.98
2023-11-23T12:39:40.702Z,1.80
2023-11-23T12:42:08.714Z,1.42
2023-11-23T12:44:37.254Z,2.20
2023-11-23T12:47:04.987Z,2.90
2023-11-23T12:49:34.942Z,1.52
2023-11-23T12:52:03.179Z,1.50
2023-11-23T12:54:31.693Z,1.60
2023-11-23T12:57:00.017Z,1.90
2023-11-23T12:59:27.949Z,2.00
2023-11-23T13:01:58.901Z,2.20
2023-11-23T13:04:30.550Z,2.33
2023-11-23T13:07:00.281Z,1.85
2023-11-23T13:09:29.482Z,1.73
2023-11-23T13:11:59.643Z,1.83
2023-11-23T13:14:27.825Z,1.70
2023-11-23T13:16:55.793Z,1.70
2023-11-23T13:19:30.633Z,1.48
2023-11-23T13:22:06.973Z,1.88
2023-11-23T13:24:37.184Z,2.38
2023-11-23T13:27:05.550Z,1.77
2023-11-23T13:29:33.495Z,1.85
2023-11-23T13:32:01.616Z,2.10
2023-11-23T13:34:29.557Z,1.63
2023-11-23T13:36:57.534Z,2.20
2023-11-23T13:39:28.584Z,2.50
2023-11-23T13:41:57.779Z,2.63
2023-11-23T13:44:25.771Z,1.67
2023-11-23T13:46:54.163Z,2.42
2023-11-23T13:49:22.767Z,3.17
2023-11-23T13:51:50.860Z,2.33
2023-11-23T13:54:19.023Z,3.33
2023-11-23T13:56:48.369Z,2.20
2023-11-23T14:01:44.285Z,2.70
2023-11-23T14:04:14.203Z,2.70
2023-11-23T14:06:43.226Z,3.65
2023-11-23T14:09:19.242Z,3.70
2023-11-23T14:11:51.498Z,3.15
2023-11-23T14:14:19.403Z,2.85
2023-11-23T14:16:47.391Z,3.28
2023-11-23T14:19:17.429Z,3.50
2023-11-23T14:21:47.338Z,3.75
2023-11-23T14:24:16.453Z,3.35
2023-11-23T14:26:44.628Z,2.67
2023-11-23T14:29:13.936Z,3.00
2023-11-23T14:36:37.986Z,3.85
2023-11-23T14:39:06.898Z,3.75
2023-11-23T14:41:36.636Z,3.50
2023-11-23T14:44:05.371Z,3.03
2023-11-23T14:46:34.738Z,3.30
2023-11-23T14:49:03.138Z,3.35
2023-11-23T14:51:31.434Z,3.80
2023-11-23T14:54:07.094Z,3.65
2023-11-23T14:56:38.691Z,4.28
2023-11-23T14:59:07.967Z,4.90
2023-11-23T15:04:08.169Z,4.28
2023-11-23T15:06:36.562Z,3.78
2023-11-23T15:09:05.844Z,4.53
2023-11-23T15:14:01.681Z,5.10
2023-11-23T15:16:31.614Z,3.65
2023-11-23T15:19:01.562Z,3.15
2023-11-23T15:21:30.860Z,3.85
2023-11-23T15:26:30.447Z,3.90
2023-11-23T15:29:00.353Z,3.70
2023-11-23T15:31:28.600Z,3.40
2023-11-23T15:33:57.082Z,4.40
2023-11-23T15:36:26.443Z,3.30
2023-11-23T15:41:22.248Z,4.40
2023-11-23T15:43:50.207Z,3.10
2023-11-23T15:46:18.222Z,3.72
2023-11-23T15:48:46.257Z,3.67
2023-11-23T15:51:15.541Z,3.75
2023-11-23T15:56:15.874Z,2.63
2023-11-23T15:58:44.447Z,3.55
2023-11-23T16:01:12.640Z,2.65
2023-11-23T16:03:40.710Z,3.38
2023-11-23T16:06:10.582Z,3.45
2023-11-23T16:08:39.076Z,3.05
2023-11-23T16:11:09.550Z,3.55
2023-11-23T16:13:39.658Z,2.58
2023-11-23T16:16:08.403Z,3.20
2023-11-23T16:18:39.726Z,2.50
2023-11-23T16:21:08.289Z,3.25
2023-11-23T16:23:36.352Z,2.92
2023-11-23T16:26:05.850Z,2.85
2023-11-23T16:28:35.142Z,3.28
2023-11-23T16:31:05.916Z,3.65
2023-11-23T16:33:33.962Z,3.15
2023-11-23T16:36:02.001Z,3.78
2023-11-23T16:38:30.717Z,3.40
2023-11-23T16:40:59.024Z,3.70
2023-11-23T16:43:27.321Z,2.20
2023-11-23T16:45:56.752Z,3.83
2023-11-23T16:48:24.827Z,3.60
2023-11-23T16:50:52.818Z,3.03
2023-11-23T16:53:20.818Z,2.83
2023-11-23T16:55:48.870Z,3.45
2023-11-23T16:58:16.820Z,3.28
2023-11-23T17:00:45.021Z,3.30
2023-11-23T17:03:15.126Z,3.30
2023-11-23T17:05:43.819Z,3.55
2023-11-23T17:08:12.658Z,2.83
2023-11-23T17:10:40.796Z,3.15
2023-11-23T17:13:11.985Z,2.60
2023-11-23T17:15:40.259Z,2.85
2023-11-23T17:18:08.327Z,2.70
2023-11-23T17:20:37.726Z,3.92
2023-11-23T17:25:39.832Z,2.35
2023-11-23T17:28:08.455Z,3.30
2023-11-23T17:30:36.942Z,3.08
2023-11-23T17:33:05.004Z,3.97
2023-11-23T17:35:33.069Z,4.05
2023-11-23T17:38:02.378Z,3.40
2023-11-23T17:40:30.341Z,4.00
2023-11-23T17:42:58.548Z,4.78
2023-11-23T17:45:26.544Z,4.20
2023-11-23T17:47:55.771Z,4.22
2023-11-23T17:50:24.068Z,4.22
2023-11-23T17:52:52.434Z,4.63
2023-11-23T17:55:21.787Z,4.65
2023-11-23T18:00:19.415Z,3.97
2023-11-23T18:05:15.908Z,3.95
2023-11-23T18:07:43.893Z,3.70
2023-11-23T18:10:15.658Z,4.72
2023-11-23T18:12:46.114Z,4.43
2023-11-23T18:15:15.151Z,4.78
2023-11-23T18:17:44.016Z,4.15
2023-11-23T18:20:14.374Z,3.03
2023-11-23T18:22:42.404Z,4.28
2023-11-23T18:25:10.633Z,4.75
2023-11-23T18:27:39.050Z,4.20
2023-11-23T18:30:10.101Z,6.13
2023-11-23T18:32:38.218Z,3.42
2023-11-23T18:35:06.657Z,3.60
2023-11-23T18:37:34.621Z,3.13
2023-11-23T18:40:13.862Z,4.00
2023-11-23T18:42:43.503Z,5.03
2023-11-23T18:45:16.108Z,2.38
2023-11-23T18:47:44.272Z,3.08
2023-11-23T18:50:12.724Z,2.33
2023-11-23T18:52:41.388Z,1.88
2023-11-23T18:55:10.897Z,0.95
2023-11-23T18:57:39.132Z,2.15
2023-11-23T19:00:09.990Z,2.00
2023-11-23T19:02:40.041Z,2.33
2023-11-23T19:05:09.120Z,1.60
2023-11-23T19:07:37.058Z,2.80
2023-11-23T19:10:08.383Z,2.25
2023-11-23T19:12:36.321Z,1.73
2023-11-23T19:15:06.998Z,2.17
2023-11-23T19:17:35.466Z,1.85
2023-11-23T19:20:06.738Z,2.20
2023-11-23T19:22:35.411Z,2.08
2023-11-23T19:25:06.184Z,2.22
2023-11-23T19:27:34.620Z,1.92
2023-11-23T19:30:03.254Z,2.30
2023-11-23T19:32:31.752Z,3.22
2023-11-23T19:35:00.260Z,2.42
2023-11-23T19:37:30.686Z,3.60
2023-11-23T19:39:59.132Z,2.92
2023-11-23T19:42:28.023Z,2.33
2023-11-23T19:44:56.517Z,1.70
2023-11-23T19:47:25.260Z,1.73
2023-11-23T19:49:53.747Z,2.88
2023-11-23T19:52:26.094Z,1.90
2023-11-23T19:54:58.424Z,2.45
2023-11-23T19:57:27.123Z,8.55
2023-11-23T19:59:55.542Z,2.70
2023-11-23T20:02:23.614Z,3.55
2023-11-23T20:04:52.320Z,3.83
2023-11-23T20:07:20.283Z,3.47
2023-11-23T20:09:48.657Z,5.65
2023-11-23T20:12:18.164Z,2.70
2023-11-23T20:14:46.285Z,2.35
2023-11-23T20:17:14.269Z,4.88
2023-11-23T20:19:43.838Z,7.55
2023-11-23T20:22:11.823Z,3.17
2023-11-23T20:24:39.824Z,3.03
2023-11-23T20:27:07.800Z,3.03
2023-11-23T20:29:37.116Z,2.85
2023-11-23T20:32:06.027Z,4.50
2023-11-23T20:34:34.109Z,1.92
2023-11-23T20:37:02.080Z,2.88
2023-11-23T20:39:32.209Z,3.90
2023-11-23T20:42:00.404Z,3.05
2023-11-23T20:44:28.436Z,2.60
2023-11-23T20:46:57.809Z,2.95
2023-11-23T20:49:26.169Z,5.53
2023-11-23T20:51:54.744Z,2.20
2023-11-23T20:54:23.539Z,3.22
2023-11-23T20:56:56.326Z,3.80
2023-11-23T20:59:25.359Z,2.80
2023-11-23T21:01:54.995Z,3.67
2023-11-23T21:04:29.209Z,1.98
2023-11-23T21:07:02.245Z,4.13
2023-11-23T21:09:31.591Z,5.70
2023-11-23T21:12:03.338Z,2.65
2023-11-23T21:14:33.135Z,2.78
2023-11-23T21:17:01.907Z,3.47
2023-11-23T21:19:31.233Z,2.78
2023-11-23T21:21:59.223Z,2.78
2023-11-23T21:24:27.244Z,2.58
2023-11-23T21:26:55.218Z,3.38
2023-11-23T21:29:23.193Z,3.08
2023-11-23T21:31:51.178Z,1.88
2023-11-23T21:34:19.185Z,0.98
2023-11-23T21:36:48.518Z,0.90
2023-11-23T21:39:17.372Z,0.75
2023-11-23T21:41:47.801Z,0.43
2023-11-23T21:44:16.495Z,0.70
2023-11-23T21:46:44.549Z,0.60
2023-11-23T21:49:12.514Z,1.45
2023-11-23T21:51:40.509Z,0.90
2023-11-23T21:54:11.193Z,1.27
2023-11-23T21:56:39.781Z,0.47
2023-11-23T21:59:07.785Z,0.70
2023-11-23T22:01:35.860Z,1.08
2023-11-23T22:04:04.987Z,1.30
2023-11-23T22:06:33.080Z,1.38
2023-11-23T22:09:01.910Z,0.73
2023-11-23T22:11:31.216Z,1.00
2023-11-23T22:13:59.195Z,1.65
2023-11-23T22:16:28.543Z,1.02
2023-11-23T22:18:57.923Z,1.92
2023-11-23T22:21:26.365Z,1.02
2023-11-23T22:23:54.805Z,1.35
2023-11-23T22:26:24.536Z,1.27
2023-11-23T22:28:54.637Z,1.65
2023-11-23T22:31:23.644Z,1.95
2023-11-23T22:33:52.214Z,1.08
2023-11-23T22:36:20.775Z,1.65
2023-11-23T22:38:49.994Z,1.63
2023-11-23T22:41:19.622Z,1.42
2023-11-23T22:43:49.808Z,2.10
2023-11-23T22:46:20.204Z,1.60
2023-11-23T22:48:48.264Z,2.85
2023-11-23T22:51:16.696Z,1.15
2023-11-23T22:53:45.262Z,3.30
2023-11-23T22:56:14.383Z,0.98
2023-11-23T22:58:43.405Z,1.80
2023-11-23T23:01:11.533Z,2.28
2023-11-23T23:03:41.499Z,1.45
2023-11-23T23:06:10.339Z,2.08
2023-11-23T23:08:39.802Z,1.13
2023-11-23T23:13:37.724Z,1.25
2023-11-23T23:16:06.364Z,1.38
2023-11-23T23:18:34.388Z,0.70
2023-11-23T23:21:03.776Z,1.13
2023-11-23T23:23:32.281Z,1.17
2023-11-23T23:26:00.307Z,1.15
2023-11-23T23:28:32.110Z,0.75
2023-11-23T23:31:00.853Z,0.82
2023-11-23T23:33:28.939Z,1.15
2023-11-23T23:35:58.210Z,1.05
2023-11-23T23:38:27.522Z,0.90
2023-11-23T23:40:55.503Z,0.80
2023-11-23T23:43:23.829Z,0.20
2023-11-23T23:45:52.017Z,0.93
2023-11-23T23:48:20.130Z,0.80
2023-11-23T23:50:48.163Z,1.85
2023-11-23T23:53:16.267Z,0.40
2023-11-23T23:55:47.039Z,0.65
2023-11-23T23:58:16.313Z,0.25
